Historyczne dane pomiarowe

Dodano dane terminowe – wersja testowa.

Dane z okresu 1951-2019

Wersja bazy: 1.34 [2019-03-16, lista zmian], aktualizacja planowana na 2019-04-15

Dane meteo z obszaru Polski uzyskane na podstawie danych udostępnionych przez Instytut Meteorologii i Gospodarki Wodnej – Państwowy Instytut Badawczy.

 

Wybierz Datę:    

       

TemperaturaWilgotnośćWiatrCiśnienieOpadyŚniegCzas trwania zjawisk
 Stacja t tx tn tng RH VA  wxwx mslp ppp RRR   cm mm wxwxwxwxwxwxwx
2015-05-15 9.2 16.4 2.9--------- 0.0--x---------
2015-05-16 11.4 20.3 2.0--------- 0.0--x---------
2015-05-17 12.3 17.7 8.2--------- 0.2--x---------
2015-05-18 12.5 21.7 1.1--------- 0.0--x---------
2015-05-19 16.5 26.2 6.2--------- 19.2--x---------
2015-05-20 17.1 25.5 11.6--------- 12.7--x---------
2015-05-21 11.1 14.4 9.8--------- 18.4--x---------
2015-05-22 11.0 12.9 9.2--------- 0.2--x---------
2015-05-23 10.8 11.6 10.1--------- 3.6--x---------
2015-05-24 11.0 12.0 10.3--------- 0.3--x---------
2015-05-25 12.4 14.6 10.4--------- 3.7--x---------
2015-05-26 12.7 13.6 12.2--------- 30.6--x---------
2015-05-27 10.0 12.3 8.6--------- 0.0--x---------
2015-05-28 10.0 14.2 7.1--------- 0.0--x---------
2015-05-29 12.4 22.5 1.0--------- 0.0--x---------
2015-05-30 14.2 24.0 5.8--------- 1.2--x---------
2015-05-31 14.2 20.8 7.4--------- 0.0--x---------
2015-06-01 16.5 25.5 6.9------------x---------
2015-06-02 18.2 25.9 9.9------------x---------
2015-06-03 21.0 29.0 10.8------------x---------
2015-06-04 18.5 23.4 15.0------------x---------
2015-06-05 16.4 24.5 6.3------------x---------
2015-06-06 18.7 28.0 6.6------------x---------
2015-06-07 21.0 29.4 11.4--------- 0.0--x---------
2015-06-08 18.7 23.7 15.7--------- 0.0--x---------
2015-06-09 17.2 22.6 11.2--------- 0.0--x---------
2015-06-10 17.2 22.4 12.9--------- 0.0--x---------
2015-06-11 17.9 24.7 9.3--------- 0.0--x---------
2015-06-12 21.9 30.4 11.1--------- 0.0--x---------
2015-06-13 23.7 32.9 14.3--------- 0.0--x---------
88.9 ms

 

Źródłem pochodzenia danych jest Instytut Meteorologii i Gospodarki Wodnej – Państwowy Instytut Badawczy. Dane Instytutu Meteorologii i Gospodarki Wodnej – Państwowego Instytutu Badawczego zostały przetworzone.

Dane źródłowe można odnaleźć na stronie https://dane.imgw.pl